04:14
Airports
Links
Donate
Help keep this website running!
PayPal
Bitcoin
METAR
EGLL 280350Z AUTO 08004KT 1500 BR OVC003 06/06 Q1019 TEMPO 0800 FG BKN002
Current Weather Conditions at EGLL
LIFR 03:50:00 28-03-17
Automated station, no observer
Altimeter:30.09 hg
Temp:6.0°c 43°f
Dew point:6.0°c 43°f
Wind:4 knots, 4.6 mph, 2 m/s, from 80°
Visibility:0.93 statute miles
300(OVC) Overcast
Past METAR reports
LIFR 03:20:00 28-03-17
Automated station, no observer
Altimeter:30.09 hg
Temp:6.0°c 43°f
Dew point:6.0°c 43°f
Wind:3 knots, 3.5 mph, 2 m/s, from 60°
Visibility:0.87 statute miles
300(OVC) Overcast
EGLL 280320Z AUTO 06003KT 1400 R27L/P1500 BR OVC003 06/06 Q1019
LIFR 02:50:00 28-03-17
Automated station, no observer
Altimeter:30.09 hg
Temp:6.0°c 43°f
Dew point:5.0°c 41°f
Wind:3 knots, 3.5 mph, 2 m/s, from 60°
Visibility:0.87 statute miles
300(OVC) Overcast
EGLL 280250Z AUTO 06003KT 1400 BR OVC003 06/05 Q1019 TEMPO 0800 FG BKN002
LIFR 02:20:00 28-03-17
Automated station, no observer
Altimeter:30.09 hg
Temp:5.0°c 41°f
Dew point:5.0°c 41°f
Wind:4 knots, 4.6 mph, 2 m/s, from 70°
Visibility:0.87 statute miles
300(BKN) Broken
EGLL 280220Z AUTO 07004KT 1400 R27L/P1500 BR BKN003 05/05 Q1019 TEMPO 0800 FG BKN002
LIFR 01:50:00 28-03-17
Automated station, no observer
Altimeter:30.12 hg
Temp:5.0°c 41°f
Dew point:5.0°c 41°f
Wind:3 knots, 3.5 mph, 2 m/s, from 70°
Visibility:0.75 statute miles
300(BKN) Broken
EGLL 280150Z AUTO 07003KT 1200 R27L/P1500 BR BKN003 05/05 Q1020 TEMPO 0800 FG BKN001
LIFR 01:20:00 28-03-17
Automated station, no observer
Altimeter:30.12 hg
Temp:5.0°c 41°f
Dew point:5.0°c 41°f
Wind:4 knots, 4.6 mph, 2 m/s, from 80°
Visibility:0.81 statute miles
300(SCT) Scattered
EGLL 280120Z AUTO 08004KT 1300 R27L/P1500 BR SCT003 05/05 Q1020 TEMPO 0800 FG BKN001
LIFR 00:50:00 28-03-17
Automated station, no observer
Altimeter:30.12 hg
Temp:6.0°c 43°f
Dew point:5.0°c 41°f
Wind:4 knots, 4.6 mph, 2 m/s, from 80°
Visibility:0.99 statute miles
400(BKN) Broken
EGLL 280050Z AUTO 08004KT 1600 BR BKN004 06/05 Q1020 TEMPO 0800 FG BKN001
TAF
TAF EGLL 272253Z 2800/2906 09004KT 3000 HZ FEW005 TEMPO 2800/2809 1400 BR BKN003 PROB30 TEMPO 2800/2808 0400 FG BKN001 BECMG 2807/2810 22010KT 9999 NSW PROB30 TEMPO 2811/2817 23015G25KT 7000 SHRA BKN014 BKN030CB BECMG 2822/2901 BKN010 TEMPO 2822/2906 6000 -RADZ BKN004
Forecast at EGLL
00:00 28-03-17 to 07:00 28-03-17
HZ
Wind:4 Knots from 90°
Visibility:1.86 statute miles
500FEW A few
TEMPO 00:00 28-03-17 to 08:00 28-03-17
30% FG
Visibility:0.25 statute miles
100BKN Broken
TEMPO 00:00 28-03-17 to 09:00 28-03-17
BR
Visibility:0.87 statute miles
300BKN Broken
BECMG 07:00 28-03-17 to 22:00 28-03-17
NSW
Wind:10 Knots from 220°
Visibility:6.21 statute miles
500FEW A few
TEMPO 11:00 28-03-17 to 17:00 28-03-17
30% SHRA
Wind:15 Knots from 230°
Visibility:4.35 statute miles
1400BKN Broken
3000BKN Broken
TEMPO 22:00 28-03-17 to 06:00 29-03-17
-RA -DZ
Visibility:3.73 statute miles
400BKN Broken
BECMG 22:00 28-03-17 to 06:00 29-03-17
NSW
Wind:10 Knots from 220°
Visibility:6.21 statute miles
1000BKN Broken